sensor_id;sensor_type;location;lat;lon;timestamp;P1;durP1;ratioP1;P2;durP2;ratioP2
29938;SDS011;16799;50.844;5.304;2024-03-23T15:41:54;4.53;;;1.30;;
29938;SDS011;16799;50.844;5.304;2024-03-23T15:44:20;8.77;;;1.30;;
29938;SDS011;16799;50.844;5.304;2024-03-23T15:46:46;6.17;;;1.40;;
29938;SDS011;16799;50.844;5.304;2024-03-23T15:49:11;7.60;;;1.30;;
29938;SDS011;16799;50.844;5.304;2024-03-23T15:51:37;6.50;;;1.20;;
29938;SDS011;16799;50.844;5.304;2024-03-23T15:54:04;2.30;;;1.43;;
29938;SDS011;16799;50.844;5.304;2024-03-23T15:56:30;5.33;;;1.10;;
29938;SDS011;16799;50.844;5.304;2024-03-23T15:58:56;4.63;;;1.57;;
29938;SDS011;16799;50.844;5.304;2024-03-23T16:01:29;3.37;;;1.90;;
29938;SDS011;16799;50.844;5.304;2024-03-23T16:03:55;2.57;;;1.70;;
29938;SDS011;16799;50.844;5.304;2024-03-23T16:06:20;3.60;;;1.83;;
29938;SDS011;16799;50.844;5.304;2024-03-23T16:08:46;5.73;;;1.60;;
29938;SDS011;16799;50.844;5.304;2024-03-23T16:11:12;1.53;;;0.93;;
29938;SDS011;16799;50.844;5.304;2024-03-23T16:13:37;6.50;;;1.37;;
29938;SDS011;16799;50.844;5.304;2024-03-23T16:16:03;4.10;;;0.90;;
29938;SDS011;16799;50.844;5.304;2024-03-23T16:18:32;8.30;;;2.50;;
29938;SDS011;16799;50.844;5.304;2024-03-23T16:21:08;2.40;;;1.40;;
29938;SDS011;16799;50.844;5.304;2024-03-23T16:23:34;3.67;;;1.40;;
29938;SDS011;16799;50.844;5.304;2024-03-23T16:26:02;8.00;;;2.73;;
29938;SDS011;16799;50.844;5.304;2024-03-23T16:28:29;5.83;;;1.80;;
29938;SDS011;16799;50.844;5.304;2024-03-23T16:31:00;3.97;;;1.70;;
29938;SDS011;16799;50.844;5.304;2024-03-23T16:33:27;2.70;;;1.33;;
29938;SDS011;16799;50.844;5.304;2024-03-23T16:38:30;3.97;;;1.63;;
29938;SDS011;16799;50.844;5.304;2024-03-23T16:41:00;1.97;;;1.53;;
29938;SDS011;16799;50.844;5.304;2024-03-23T16:43:27;6.03;;;2.87;;
29938;SDS011;16799;50.844;5.304;2024-03-23T16:46:01;4.03;;;1.70;;
29938;SDS011;16799;50.844;5.304;2024-03-23T16:48:31;7.13;;;1.53;;
29938;SDS011;16799;50.844;5.304;2024-03-23T16:50:58;2.50;;;1.37;;
29938;SDS011;16799;50.844;5.304;2024-03-23T16:53:29;8.10;;;2.20;;
29938;SDS011;16799;50.844;5.304;2024-03-23T16:56:02;7.80;;;1.83;;
29938;SDS011;16799;50.844;5.304;2024-03-23T16:58:29;5.37;;;1.67;;
29938;SDS011;16799;50.844;5.304;2024-03-23T17:00:56;2.00;;;1.70;;
29938;SDS011;16799;50.844;5.304;2024-03-23T17:03:27;6.10;;;1.73;;
29938;SDS011;16799;50.844;5.304;2024-03-23T17:05:53;4.50;;;2.07;;
29938;SDS011;16799;50.844;5.304;2024-03-23T17:08:19;12.57;;;1.67;;
29938;SDS011;16799;50.844;5.304;2024-03-23T17:10:44;4.00;;;1.90;;
29938;SDS011;16799;50.844;5.304;2024-03-23T17:13:11;4.87;;;2.27;;
29938;SDS011;16799;50.844;5.304;2024-03-23T17:18:09;10.70;;;2.50;;
29938;SDS011;16799;50.844;5.304;2024-03-23T17:20:35;9.90;;;2.70;;
29938;SDS011;16799;50.844;5.304;2024-03-23T17:23:01;2.57;;;1.57;;
29938;SDS011;16799;50.844;5.304;2024-03-23T17:25:27;3.83;;;1.73;;
29938;SDS011;16799;50.844;5.304;2024-03-23T17:27:52;3.73;;;2.47;;
29938;SDS011;16799;50.844;5.304;2024-03-23T17:30:19;8.67;;;1.57;;
29938;SDS011;16799;50.844;5.304;2024-03-23T17:32:45;8.13;;;2.07;;
29938;SDS011;16799;50.844;5.304;2024-03-23T17:35:11;8.73;;;2.13;;
29938;SDS011;16799;50.844;5.304;2024-03-23T17:37:40;4.83;;;1.97;;
29938;SDS011;16799;50.844;5.304;2024-03-23T17:40:07;2.70;;;1.67;;
29938;SDS011;16799;50.844;5.304;2024-03-23T17:42:37;5.13;;;1.70;;
29938;SDS011;16799;50.844;5.304;2024-03-23T17:45:04;3.30;;;1.50;;
29938;SDS011;16799;50.844;5.304;2024-03-23T17:47:35;1.97;;;1.77;;
29938;SDS011;16799;50.844;5.304;2024-03-23T17:50:02;1.80;;;1.70;;
29938;SDS011;16799;50.844;5.304;2024-03-23T17:52:28;2.33;;;2.20;;
29938;SDS011;16799;50.844;5.304;2024-03-23T17:54:54;2.67;;;1.70;;
29938;SDS011;16799;50.844;5.304;2024-03-23T17:57:20;6.60;;;2.40;;
29938;SDS011;16799;50.844;5.304;2024-03-23T17:59:45;9.43;;;2.93;;
29938;SDS011;16799;50.844;5.304;2024-03-23T18:02:11;3.77;;;1.80;;
29938;SDS011;16799;50.844;5.304;2024-03-23T18:04:37;2.33;;;2.13;;
29938;SDS011;16799;50.844;5.304;2024-03-23T18:07:03;3.20;;;1.53;;
29938;SDS011;16799;50.844;5.304;2024-03-23T18:09:28;3.03;;;1.90;;
29938;SDS011;16799;50.844;5.304;2024-03-23T18:11:54;3.00;;;2.67;;
29938;SDS011;16799;50.844;5.304;2024-03-23T18:14:20;7.73;;;2.10;;
29938;SDS011;16799;50.844;5.304;2024-03-23T18:16:47;2.00;;;1.80;;
29938;SDS011;16799;50.844;5.304;2024-03-23T18:19:14;2.70;;;1.70;;
29938;SDS011;16799;50.844;5.304;2024-03-23T18:21:40;3.20;;;1.80;;
29938;SDS011;16799;50.844;5.304;2024-03-23T18:24:05;2.13;;;1.93;;
29938;SDS011;16799;50.844;5.304;2024-03-23T18:26:31;4.33;;;2.03;;
29938;SDS011;16799;50.844;5.304;2024-03-23T18:28:57;4.13;;;2.30;;
29938;SDS011;16799;50.844;5.304;2024-03-23T18:31:22;5.70;;;3.77;;
29938;SDS011;16799;50.844;5.304;2024-03-23T18:33:48;4.00;;;3.50;;
29938;SDS011;16799;50.844;5.304;2024-03-23T18:36:14;12.00;;;3.00;;
29938;SDS011;16799;50.844;5.304;2024-03-23T18:38:39;5.23;;;2.57;;
29938;SDS011;16799;50.844;5.304;2024-03-23T18:41:05;11.87;;;4.10;;
29938;SDS011;16799;50.844;5.304;2024-03-23T18:43:31;15.90;;;3.43;;
29938;SDS011;16799;50.844;5.304;2024-03-23T18:45:57;2.73;;;2.17;;
29938;SDS011;16799;50.844;5.304;2024-03-23T18:48:23;5.77;;;1.87;;
29938;SDS011;16799;50.844;5.304;2024-03-23T18:50:49;10.40;;;3.60;;
29938;SDS011;16799;50.844;5.304;2024-03-23T18:53:15;2.70;;;2.50;;
29938;SDS011;16799;50.844;5.304;2024-03-23T18:55:41;10.13;;;5.07;;
29938;SDS011;16799;50.844;5.304;2024-03-23T18:58:17;7.63;;;3.63;;
29938;SDS011;16799;50.844;5.304;2024-03-23T19:00:42;5.67;;;3.50;;
29938;SDS011;16799;50.844;5.304;2024-03-23T19:03:08;8.57;;;3.57;;
29938;SDS011;16799;50.844;5.304;2024-03-23T19:05:34;3.63;;;2.77;;
29938;SDS011;16799;50.844;5.304;2024-03-23T19:08:00;7.20;;;3.60;;
29938;SDS011;16799;50.844;5.304;2024-03-23T19:10:25;5.43;;;3.00;;
29938;SDS011;16799;50.844;5.304;2024-03-23T19:12:51;4.40;;;1.70;;
29938;SDS011;16799;50.844;5.304;2024-03-23T19:15:17;2.03;;;1.87;;
29938;SDS011;16799;50.844;5.304;2024-03-23T19:17:43;15.93;;;1.90;;
29938;SDS011;16799;50.844;5.304;2024-03-23T19:20:09;2.30;;;1.80;;
29938;SDS011;16799;50.844;5.304;2024-03-23T19:22:35;6.47;;;1.80;;
29938;SDS011;16799;50.844;5.304;2024-03-23T19:25:01;4.20;;;1.93;;
29938;SDS011;16799;50.844;5.304;2024-03-23T19:27:27;3.03;;;1.80;;
29938;SDS011;16799;50.844;5.304;2024-03-23T19:29:53;2.20;;;2.00;;
29938;SDS011;16799;50.844;5.304;2024-03-23T19:32:19;7.00;;;2.83;;
29938;SDS011;16799;50.844;5.304;2024-03-23T19:34:45;4.10;;;2.80;;
29938;SDS011;16799;50.844;5.304;2024-03-23T19:37:11;16.97;;;3.73;;
29938;SDS011;16799;50.844;5.304;2024-03-23T19:39:37;3.10;;;2.40;;
29938;SDS011;16799;50.844;5.304;2024-03-23T19:42:05;7.60;;;5.07;;
29938;SDS011;16799;50.844;5.304;2024-03-23T19:44:31;11.67;;;5.20;;
29938;SDS011;16799;50.844;5.304;2024-03-23T19:46:57;13.50;;;3.27;;
29938;SDS011;16799;50.844;5.304;2024-03-23T19:49:23;4.70;;;3.70;;
29938;SDS011;16799;50.844;5.304;2024-03-23T19:51:51;4.50;;;2.00;;
29938;SDS011;16799;50.844;5.304;2024-03-23T19:54:17;7.87;;;1.80;;
29938;SDS011;16799;50.844;5.304;2024-03-23T19:56:43;6.10;;;2.17;;
29938;SDS011;16799;50.844;5.304;2024-03-23T19:59:10;6.17;;;1.67;;
29938;SDS011;16799;50.844;5.304;2024-03-23T20:01:36;4.47;;;1.70;;
29938;SDS011;16799;50.844;5.304;2024-03-23T20:04:02;3.50;;;1.67;;
29938;SDS011;16799;50.844;5.304;2024-03-23T20:06:29;4.37;;;1.37;;
29938;SDS011;16799;50.844;5.304;2024-03-23T20:08:54;4.37;;;2.23;;
29938;SDS011;16799;50.844;5.304;2024-03-23T20:11:26;2.17;;;1.60;;
29938;SDS011;16799;50.844;5.304;2024-03-23T20:13:52;9.60;;;2.30;;
29938;SDS011;16799;50.844;5.304;2024-03-23T20:16:18;5.93;;;2.10;;
29938;SDS011;16799;50.844;5.304;2024-03-23T20:18:44;7.73;;;2.43;;
29938;SDS011;16799;50.844;5.304;2024-03-23T20:21:10;3.53;;;1.80;;
29938;SDS011;16799;50.844;5.304;2024-03-23T20:23:35;6.57;;;1.63;;
29938;SDS011;16799;50.844;5.304;2024-03-23T20:26:01;3.30;;;1.40;;
29938;SDS011;16799;50.844;5.304;2024-03-23T20:28:27;4.20;;;1.63;;
29938;SDS011;16799;50.844;5.304;2024-03-23T20:30:56;2.93;;;1.07;;
29938;SDS011;16799;50.844;5.304;2024-03-23T20:33:23;2.73;;;1.17;;
29938;SDS011;16799;50.844;5.304;2024-03-23T20:35:49;2.50;;;1.50;;
29938;SDS011;16799;50.844;5.304;2024-03-23T20:38:19;2.10;;;1.33;;
29938;SDS011;16799;50.844;5.304;2024-03-23T20:40:46;1.93;;;1.17;;
29938;SDS011;16799;50.844;5.304;2024-03-23T20:43:17;3.70;;;1.43;;
29938;SDS011;16799;50.844;5.304;2024-03-23T20:45:42;2.30;;;1.87;;
29938;SDS011;16799;50.844;5.304;2024-03-23T20:48:08;5.30;;;1.80;;
29938;SDS011;16799;50.844;5.304;2024-03-23T20:50:34;3.40;;;1.70;;
29938;SDS011;16799;50.844;5.304;2024-03-23T20:52:59;2.90;;;1.63;;
29938;SDS011;16799;50.844;5.304;2024-03-23T20:55:25;4.33;;;1.67;;
29938;SDS011;16799;50.844;5.304;2024-03-23T20:57:51;2.67;;;2.17;;
29938;SDS011;16799;50.844;5.304;2024-03-23T21:00:18;4.20;;;2.20;;
29938;SDS011;16799;50.844;5.304;2024-03-23T21:02:44;2.90;;;1.57;;
29938;SDS011;16799;50.844;5.304;2024-03-23T21:05:09;2.80;;;2.50;;
29938;SDS011;16799;50.844;5.304;2024-03-23T21:07:35;2.03;;;1.93;;
29938;SDS011;16799;50.844;5.304;2024-03-23T21:10:01;12.00;;;2.30;;
29938;SDS011;16799;50.844;5.304;2024-03-23T21:12:27;2.57;;;2.37;;
29938;SDS011;16799;50.844;5.304;2024-03-23T21:14:52;3.20;;;2.90;;
29938;SDS011;16799;50.844;5.304;2024-03-23T21:17:18;4.20;;;2.53;;
29938;SDS011;16799;50.844;5.304;2024-03-23T21:19:47;2.77;;;2.53;;
29938;SDS011;16799;50.844;5.304;2024-03-23T21:22:14;5.87;;;3.57;;
29938;SDS011;16799;50.844;5.304;2024-03-23T21:24:39;4.07;;;3.63;;
29938;SDS011;16799;50.844;5.304;2024-03-23T21:27:05;3.67;;;2.73;;
29938;SDS011;16799;50.844;5.304;2024-03-23T21:29:31;2.80;;;2.10;;
29938;SDS011;16799;50.844;5.304;2024-03-23T21:31:57;3.73;;;3.30;;
29938;SDS011;16799;50.844;5.304;2024-03-23T21:34:23;4.00;;;2.80;;
29938;SDS011;16799;50.844;5.304;2024-03-23T21:36:49;3.80;;;3.50;;
29938;SDS011;16799;50.844;5.304;2024-03-23T21:39:15;6.50;;;3.77;;
29938;SDS011;16799;50.844;5.304;2024-03-23T21:41:42;6.63;;;3.17;;
29938;SDS011;16799;50.844;5.304;2024-03-23T21:44:09;3.70;;;3.40;;
29938;SDS011;16799;50.844;5.304;2024-03-23T21:46:34;4.53;;;4.23;;
29938;SDS011;16799;50.844;5.304;2024-03-23T21:49:01;9.70;;;4.27;;
29938;SDS011;16799;50.844;5.304;2024-03-23T21:51:27;4.40;;;3.73;;
29938;SDS011;16799;50.844;5.304;2024-03-23T21:53:53;3.67;;;3.40;;
29938;SDS011;16799;50.844;5.304;2024-03-23T21:56:20;6.63;;;4.03;;
29938;SDS011;16799;50.844;5.304;2024-03-23T21:58:46;6.80;;;4.53;;
29938;SDS011;16799;50.844;5.304;2024-03-23T22:01:12;7.33;;;5.00;;
29938;SDS011;16799;50.844;5.304;2024-03-23T22:03:37;4.77;;;4.13;;
29938;SDS011;16799;50.844;5.304;2024-03-23T22:06:04;4.73;;;3.30;;
29938;SDS011;16799;50.844;5.304;2024-03-23T22:08:30;6.93;;;3.70;;
29938;SDS011;16799;50.844;5.304;2024-03-23T22:10:57;9.97;;;4.47;;
29938;SDS011;16799;50.844;5.304;2024-03-23T22:13:23;8.90;;;2.70;;
29938;SDS011;16799;50.844;5.304;2024-03-23T22:15:56;6.63;;;4.73;;
29938;SDS011;16799;50.844;5.304;2024-03-23T22:18:22;4.23;;;3.07;;
29938;SDS011;16799;50.844;5.304;2024-03-23T22:20:54;3.67;;;2.73;;
29938;SDS011;16799;50.844;5.304;2024-03-23T22:23:29;3.60;;;3.30;;
29938;SDS011;16799;50.844;5.304;2024-03-23T22:25:56;5.23;;;3.93;;
29938;SDS011;16799;50.844;5.304;2024-03-23T22:28:24;17.73;;;5.67;;
29938;SDS011;16799;50.844;5.304;2024-03-23T22:30:57;15.10;;;4.70;;
29938;SDS011;16799;50.844;5.304;2024-03-23T22:33:25;5.33;;;3.60;;
29938;SDS011;16799;50.844;5.304;2024-03-23T22:35:54;9.80;;;3.77;;
29938;SDS011;16799;50.844;5.304;2024-03-23T22:38:24;6.50;;;3.57;;
29938;SDS011;16799;50.844;5.304;2024-03-23T22:40:58;5.10;;;2.80;;
29938;SDS011;16799;50.844;5.304;2024-03-23T22:43:25;7.53;;;4.90;;
29938;SDS011;16799;50.844;5.304;2024-03-23T22:45:52;5.03;;;3.37;;
29938;SDS011;16799;50.844;5.304;2024-03-23T22:48:25;9.17;;;3.40;;
29938;SDS011;16799;50.844;5.304;2024-03-23T22:50:56;6.03;;;4.47;;
29938;SDS011;16799;50.844;5.304;2024-03-23T22:53:23;2.93;;;2.73;;
29938;SDS011;16799;50.844;5.304;2024-03-23T22:55:50;3.87;;;3.47;;
29938;SDS011;16799;50.844;5.304;2024-03-23T22:58:16;4.40;;;3.13;;
29938;SDS011;16799;50.844;5.304;2024-03-23T23:00:43;4.20;;;2.90;;
29938;SDS011;16799;50.844;5.304;2024-03-23T23:03:12;3.50;;;3.10;;
29938;SDS011;16799;50.844;5.304;2024-03-23T23:05:38;5.10;;;2.90;;
29938;SDS011;16799;50.844;5.304;2024-03-23T23:08:08;6.57;;;2.63;;
29938;SDS011;16799;50.844;5.304;2024-03-23T23:10:35;6.57;;;2.97;;
29938;SDS011;16799;50.844;5.304;2024-03-23T23:13:01;10.33;;;4.03;;
29938;SDS011;16799;50.844;5.304;2024-03-23T23:15:27;4.93;;;3.70;;
29938;SDS011;16799;50.844;5.304;2024-03-23T23:17:53;9.77;;;3.40;;
29938;SDS011;16799;50.844;5.304;2024-03-23T23:20:19;6.33;;;3.10;;
29938;SDS011;16799;50.844;5.304;2024-03-23T23:22:45;4.97;;;3.17;;
29938;SDS011;16799;50.844;5.304;2024-03-23T23:25:10;4.10;;;3.80;;
29938;SDS011;16799;50.844;5.304;2024-03-23T23:27:36;3.30;;;3.00;;
29938;SDS011;16799;50.844;5.304;2024-03-23T23:30:04;2.90;;;2.70;;
29938;SDS011;16799;50.844;5.304;2024-03-23T23:32:31;10.40;;;3.30;;
29938;SDS011;16799;50.844;5.304;2024-03-23T23:35:00;3.47;;;3.27;;
29938;SDS011;16799;50.844;5.304;2024-03-23T23:37:27;7.10;;;4.47;;
29938;SDS011;16799;50.844;5.304;2024-03-23T23:39:53;17.43;;;4.27;;
29938;SDS011;16799;50.844;5.304;2024-03-23T23:42:23;3.73;;;3.37;;
29938;SDS011;16799;50.844;5.304;2024-03-23T23:44:49;4.83;;;3.80;;
29938;SDS011;16799;50.844;5.304;2024-03-23T23:47:15;4.10;;;3.70;;
29938;SDS011;16799;50.844;5.304;2024-03-23T23:49:41;3.97;;;3.30;;
29938;SDS011;16799;50.844;5.304;2024-03-23T23:52:07;5.67;;;4.50;;
29938;SDS011;16799;50.844;5.304;2024-03-23T23:54:33;5.83;;;4.50;;
29938;SDS011;16799;50.844;5.304;2024-03-23T23:56:59;9.20;;;3.43;;
29938;SDS011;16799;50.844;5.304;2024-03-23T23:59:24;4.10;;;3.80;;
